sensor_id;sensor_type;location;lat;lon;timestamp;P1;durP1;ratioP1;P2;durP2;ratioP2
43046;SDS011;28672;49.358;8.780;2023-01-16T00:00:28;0.57;;;0.57;;
43046;SDS011;28672;49.358;8.780;2023-01-16T00:02:53;0.40;;;0.40;;
43046;SDS011;28672;49.358;8.780;2023-01-16T00:05:19;0.32;;;0.32;;
43046;SDS011;28672;49.358;8.780;2023-01-16T00:07:44;0.47;;;0.47;;
43046;SDS011;28672;49.358;8.780;2023-01-16T00:10:10;0.40;;;0.40;;
43046;SDS011;28672;49.358;8.780;2023-01-16T00:12:36;0.60;;;0.60;;
43046;SDS011;28672;49.358;8.780;2023-01-16T00:15:02;0.40;;;0.40;;
43046;SDS011;28672;49.358;8.780;2023-01-16T00:17:28;1.00;;;0.50;;
43046;SDS011;28672;49.358;8.780;2023-01-16T00:19:54;0.40;;;0.40;;
43046;SDS011;28672;49.358;8.780;2023-01-16T00:22:20;0.65;;;0.65;;
43046;SDS011;28672;49.358;8.780;2023-01-16T00:24:45;1.65;;;0.43;;
43046;SDS011;28672;49.358;8.780;2023-01-16T00:27:11;2.30;;;1.05;;
43046;SDS011;28672;49.358;8.780;2023-01-16T00:29:36;0.50;;;0.50;;
43046;SDS011;28672;49.358;8.780;2023-01-16T00:32:02;0.50;;;0.50;;
43046;SDS011;28672;49.358;8.780;2023-01-16T00:34:27;2.92;;;0.75;;
43046;SDS011;28672;49.358;8.780;2023-01-16T00:36:53;0.40;;;0.40;;
43046;SDS011;28672;49.358;8.780;2023-01-16T00:39:19;24.23;;;0.70;;
43046;SDS011;28672;49.358;8.780;2023-01-16T00:41:44;2.33;;;1.05;;
43046;SDS011;28672;49.358;8.780;2023-01-16T00:44:10;0.75;;;0.75;;
43046;SDS011;28672;49.358;8.780;2023-01-16T00:46:35;0.30;;;0.30;;
43046;SDS011;28672;49.358;8.780;2023-01-16T00:49:01;0.40;;;0.40;;
43046;SDS011;28672;49.358;8.780;2023-01-16T00:51:26;0.40;;;0.40;;
43046;SDS011;28672;49.358;8.780;2023-01-16T00:53:52;0.40;;;0.40;;
43046;SDS011;28672;49.358;8.780;2023-01-16T00:56:17;0.40;;;0.40;;
43046;SDS011;28672;49.358;8.780;2023-01-16T00:58:43;0.40;;;0.40;;
43046;SDS011;28672;49.358;8.780;2023-01-16T01:01:09;1.33;;;0.70;;
43046;SDS011;28672;49.358;8.780;2023-01-16T01:03:34;0.40;;;0.40;;
43046;SDS011;28672;49.358;8.780;2023-01-16T01:06:04;0.40;;;0.40;;
43046;SDS011;28672;49.358;8.780;2023-01-16T01:08:30;0.57;;;0.57;;
43046;SDS011;28672;49.358;8.780;2023-01-16T01:10:56;0.40;;;0.40;;
43046;SDS011;28672;49.358;8.780;2023-01-16T01:13:21;0.40;;;0.40;;
43046;SDS011;28672;49.358;8.780;2023-01-16T01:15:47;0.30;;;0.30;;
43046;SDS011;28672;49.358;8.780;2023-01-16T01:18:12;0.30;;;0.30;;
43046;SDS011;28672;49.358;8.780;2023-01-16T01:20:38;0.50;;;0.50;;
43046;SDS011;28672;49.358;8.780;2023-01-16T01:23:04;0.65;;;0.60;;
43046;SDS011;28672;49.358;8.780;2023-01-16T01:25:29;0.50;;;0.50;;
43046;SDS011;28672;49.358;8.780;2023-01-16T01:27:55;0.63;;;0.63;;
43046;SDS011;28672;49.358;8.780;2023-01-16T01:30:20;0.40;;;0.40;;
43046;SDS011;28672;49.358;8.780;2023-01-16T01:32:46;0.50;;;0.50;;
43046;SDS011;28672;49.358;8.780;2023-01-16T01:35:11;0.40;;;0.40;;
43046;SDS011;28672;49.358;8.780;2023-01-16T01:37:37;0.40;;;0.40;;
43046;SDS011;28672;49.358;8.780;2023-01-16T01:40:03;0.52;;;0.40;;
43046;SDS011;28672;49.358;8.780;2023-01-16T01:42:29;0.40;;;0.40;;
43046;SDS011;28672;49.358;8.780;2023-01-16T01:45:17;0.45;;;0.45;;
43046;SDS011;28672;49.358;8.780;2023-01-16T01:47:52;5.47;;;1.05;;
43046;SDS011;28672;49.358;8.780;2023-01-16T01:50:35;0.77;;;0.77;;
43046;SDS011;28672;49.358;8.780;2023-01-16T01:53:02;0.90;;;0.63;;
43046;SDS011;28672;49.358;8.780;2023-01-16T01:55:33;0.40;;;0.40;;
43046;SDS011;28672;49.358;8.780;2023-01-16T01:57:59;0.50;;;0.50;;
43046;SDS011;28672;49.358;8.780;2023-01-16T02:00:27;0.40;;;0.40;;
43046;SDS011;28672;49.358;8.780;2023-01-16T02:02:55;0.40;;;0.40;;
43046;SDS011;28672;49.358;8.780;2023-01-16T02:05:28;0.40;;;0.40;;
43046;SDS011;28672;49.358;8.780;2023-01-16T02:07:57;0.50;;;0.50;;
43046;SDS011;28672;49.358;8.780;2023-01-16T02:10:27;0.40;;;0.40;;
43046;SDS011;28672;49.358;8.780;2023-01-16T02:13:00;0.40;;;0.40;;
43046;SDS011;28672;49.358;8.780;2023-01-16T02:15:26;0.40;;;0.40;;
43046;SDS011;28672;49.358;8.780;2023-01-16T02:17:52;0.52;;;0.52;;
43046;SDS011;28672;49.358;8.780;2023-01-16T02:20:44;1.13;;;0.70;;
43046;SDS011;28672;49.358;8.780;2023-01-16T02:23:39;0.32;;;0.32;;
43046;SDS011;28672;49.358;8.780;2023-01-16T02:34:16;2.63;;;0.57;;
43046;SDS011;28672;49.358;8.780;2023-01-16T02:36:49;2.03;;;0.95;;
43046;SDS011;28672;49.358;8.780;2023-01-16T02:47:40;0.40;;;0.40;;
43046;SDS011;28672;49.358;8.780;2023-01-16T02:50:30;0.63;;;0.63;;
43046;SDS011;28672;49.358;8.780;2023-01-16T02:56:00;0.70;;;0.70;;
43046;SDS011;28672;49.358;8.780;2023-01-16T02:58:33;0.55;;;0.55;;
43046;SDS011;28672;49.358;8.780;2023-01-16T03:01:03;0.45;;;0.45;;
43046;SDS011;28672;49.358;8.780;2023-01-16T03:06:16;0.30;;;0.30;;
43046;SDS011;28672;49.358;8.780;2023-01-16T03:26:12;0.40;;;0.40;;
43046;SDS011;28672;49.358;8.780;2023-01-16T03:31:23;0.40;;;0.40;;
43046;SDS011;28672;49.358;8.780;2023-01-16T03:34:07;0.77;;;0.77;;
43046;SDS011;28672;49.358;8.780;2023-01-16T03:36:46;1.85;;;0.88;;
43046;SDS011;28672;49.358;8.780;2023-01-16T03:39:21;0.50;;;0.50;;
43046;SDS011;28672;49.358;8.780;2023-01-16T03:41:50;0.40;;;0.40;;
43046;SDS011;28672;49.358;8.780;2023-01-16T03:44:23;0.50;;;0.50;;
43046;SDS011;28672;49.358;8.780;2023-01-16T03:46:54;0.63;;;0.63;;
43046;SDS011;28672;49.358;8.780;2023-01-16T03:49:22;0.60;;;0.60;;
43046;SDS011;28672;49.358;8.780;2023-01-16T03:51:55;0.70;;;0.70;;
43046;SDS011;28672;49.358;8.780;2023-01-16T03:54:27;0.57;;;0.57;;
43046;SDS011;28672;49.358;8.780;2023-01-16T03:56:57;0.43;;;0.43;;
43046;SDS011;28672;49.358;8.780;2023-01-16T03:59:31;0.40;;;0.40;;
43046;SDS011;28672;49.358;8.780;2023-01-16T04:01:58;0.40;;;0.40;;
43046;SDS011;28672;49.358;8.780;2023-01-16T04:04:37;0.40;;;0.40;;
43046;SDS011;28672;49.358;8.780;2023-01-16T04:10:04;0.30;;;0.30;;
43046;SDS011;28672;49.358;8.780;2023-01-16T04:12:35;0.40;;;0.40;;
43046;SDS011;28672;49.358;8.780;2023-01-16T04:15:04;0.40;;;0.40;;
43046;SDS011;28672;49.358;8.780;2023-01-16T04:17:31;0.40;;;0.40;;
43046;SDS011;28672;49.358;8.780;2023-01-16T04:19:59;0.40;;;0.40;;
43046;SDS011;28672;49.358;8.780;2023-01-16T04:22:27;0.40;;;0.40;;
43046;SDS011;28672;49.358;8.780;2023-01-16T04:24:54;0.40;;;0.40;;
43046;SDS011;28672;49.358;8.780;2023-01-16T04:27:22;0.40;;;0.40;;
43046;SDS011;28672;49.358;8.780;2023-01-16T04:29:48;0.40;;;0.40;;
43046;SDS011;28672;49.358;8.780;2023-01-16T04:32:13;0.40;;;0.40;;
43046;SDS011;28672;49.358;8.780;2023-01-16T04:34:39;0.40;;;0.40;;
43046;SDS011;28672;49.358;8.780;2023-01-16T04:37:05;0.40;;;0.40;;
43046;SDS011;28672;49.358;8.780;2023-01-16T04:39:30;4.50;;;0.57;;
43046;SDS011;28672;49.358;8.780;2023-01-16T04:41:56;0.40;;;0.40;;
43046;SDS011;28672;49.358;8.780;2023-01-16T04:44:22;0.40;;;0.40;;
43046;SDS011;28672;49.358;8.780;2023-01-16T04:46:49;0.40;;;0.40;;
43046;SDS011;28672;49.358;8.780;2023-01-16T04:49:14;0.60;;;0.60;;
43046;SDS011;28672;49.358;8.780;2023-01-16T04:51:40;16.27;;;0.60;;
43046;SDS011;28672;49.358;8.780;2023-01-16T04:54:06;0.40;;;0.40;;
43046;SDS011;28672;49.358;8.780;2023-01-16T04:56:34;0.40;;;0.40;;
43046;SDS011;28672;49.358;8.780;2023-01-16T04:59:00;0.40;;;0.40;;
43046;SDS011;28672;49.358;8.780;2023-01-16T05:01:26;0.40;;;0.40;;
43046;SDS011;28672;49.358;8.780;2023-01-16T05:03:52;0.50;;;0.50;;
43046;SDS011;28672;49.358;8.780;2023-01-16T05:06:17;0.50;;;0.50;;
43046;SDS011;28672;49.358;8.780;2023-01-16T05:08:43;0.40;;;0.40;;
43046;SDS011;28672;49.358;8.780;2023-01-16T05:11:08;0.65;;;0.57;;
43046;SDS011;28672;49.358;8.780;2023-01-16T05:13:34;0.57;;;0.57;;
43046;SDS011;28672;49.358;8.780;2023-01-16T05:16:00;0.38;;;0.38;;
43046;SDS011;28672;49.358;8.780;2023-01-16T05:18:25;0.38;;;0.38;;
43046;SDS011;28672;49.358;8.780;2023-01-16T05:20:51;0.40;;;0.40;;
43046;SDS011;28672;49.358;8.780;2023-01-16T05:23:16;0.40;;;0.40;;
43046;SDS011;28672;49.358;8.780;2023-01-16T05:25:43;0.52;;;0.52;;
43046;SDS011;28672;49.358;8.780;2023-01-16T05:28:08;1.05;;;0.40;;
43046;SDS011;28672;49.358;8.780;2023-01-16T05:30:34;0.40;;;0.40;;
43046;SDS011;28672;49.358;8.780;2023-01-16T05:33:00;0.52;;;0.52;;
43046;SDS011;28672;49.358;8.780;2023-01-16T05:35:27;4.50;;;0.85;;
43046;SDS011;28672;49.358;8.780;2023-01-16T05:37:52;3.53;;;0.82;;
43046;SDS011;28672;49.358;8.780;2023-01-16T05:40:18;1.00;;;0.88;;
43046;SDS011;28672;49.358;8.780;2023-01-16T05:42:44;8.38;;;0.88;;
43046;SDS011;28672;49.358;8.780;2023-01-16T05:45:12;1.73;;;0.90;;
43046;SDS011;28672;49.358;8.780;2023-01-16T05:47:38;0.57;;;0.57;;
43046;SDS011;28672;49.358;8.780;2023-01-16T05:50:04;0.60;;;0.60;;
43046;SDS011;28672;49.358;8.780;2023-01-16T05:52:30;0.50;;;0.50;;
43046;SDS011;28672;49.358;8.780;2023-01-16T05:54:55;0.60;;;0.60;;
43046;SDS011;28672;49.358;8.780;2023-01-16T05:57:21;0.40;;;0.40;;
43046;SDS011;28672;49.358;8.780;2023-01-16T05:59:48;0.40;;;0.40;;
43046;SDS011;28672;49.358;8.780;2023-01-16T06:02:18;1.85;;;0.82;;
43046;SDS011;28672;49.358;8.780;2023-01-16T06:04:44;0.40;;;0.40;;
43046;SDS011;28672;49.358;8.780;2023-01-16T06:07:10;0.40;;;0.40;;
43046;SDS011;28672;49.358;8.780;2023-01-16T06:09:36;0.55;;;0.47;;
43046;SDS011;28672;49.358;8.780;2023-01-16T06:12:02;0.50;;;0.50;;
43046;SDS011;28672;49.358;8.780;2023-01-16T06:14:28;0.40;;;0.40;;
43046;SDS011;28672;49.358;8.780;2023-01-16T06:16:54;0.40;;;0.40;;
43046;SDS011;28672;49.358;8.780;2023-01-16T06:19:19;0.40;;;0.40;;
43046;SDS011;28672;49.358;8.780;2023-01-16T06:21:45;0.40;;;0.40;;
43046;SDS011;28672;49.358;8.780;2023-01-16T06:24:10;0.40;;;0.40;;
43046;SDS011;28672;49.358;8.780;2023-01-16T06:26:36;0.60;;;0.60;;
43046;SDS011;28672;49.358;8.780;2023-01-16T06:29:01;1.48;;;0.93;;
43046;SDS011;28672;49.358;8.780;2023-01-16T06:31:27;4.13;;;0.85;;
43046;SDS011;28672;49.358;8.780;2023-01-16T06:33:53;0.30;;;0.30;;
43046;SDS011;28672;49.358;8.780;2023-01-16T06:36:19;0.40;;;0.40;;
43046;SDS011;28672;49.358;8.780;2023-01-16T06:38:44;0.43;;;0.43;;
43046;SDS011;28672;49.358;8.780;2023-01-16T06:41:10;0.60;;;0.60;;
43046;SDS011;28672;49.358;8.780;2023-01-16T06:43:35;0.40;;;0.40;;
43046;SDS011;28672;49.358;8.780;2023-01-16T06:46:01;0.50;;;0.50;;
43046;SDS011;28672;49.358;8.780;2023-01-16T06:48:27;0.40;;;0.40;;
43046;SDS011;28672;49.358;8.780;2023-01-16T06:50:52;0.98;;;0.63;;
43046;SDS011;28672;49.358;8.780;2023-01-16T06:53:18;0.68;;;0.63;;
43046;SDS011;28672;49.358;8.780;2023-01-16T06:55:44;0.52;;;0.52;;
43046;SDS011;28672;49.358;8.780;2023-01-16T06:58:09;0.65;;;0.65;;
43046;SDS011;28672;49.358;8.780;2023-01-16T07:00:35;0.60;;;0.60;;
43046;SDS011;28672;49.358;8.780;2023-01-16T07:03:01;0.70;;;0.63;;
43046;SDS011;28672;49.358;8.780;2023-01-16T07:05:28;0.90;;;0.80;;
43046;SDS011;28672;49.358;8.780;2023-01-16T07:07:54;0.60;;;0.60;;
43046;SDS011;28672;49.358;8.780;2023-01-16T07:10:20;0.40;;;0.40;;
43046;SDS011;28672;49.358;8.780;2023-01-16T07:12:47;0.50;;;0.50;;
43046;SDS011;28672;49.358;8.780;2023-01-16T07:15:14;1.08;;;1.00;;
43046;SDS011;28672;49.358;8.780;2023-01-16T07:17:58;11.07;;;0.70;;
43046;SDS011;28672;49.358;8.780;2023-01-16T07:20:43;0.70;;;0.70;;
43046;SDS011;28672;49.358;8.780;2023-01-16T07:23:34;0.40;;;0.40;;
43046;SDS011;28672;49.358;8.780;2023-01-16T07:26:02;0.40;;;0.40;;
43046;SDS011;28672;49.358;8.780;2023-01-16T07:28:30;0.50;;;0.50;;
43046;SDS011;28672;49.358;8.780;2023-01-16T07:30:57;0.80;;;0.50;;
43046;SDS011;28672;49.358;8.780;2023-01-16T07:33:23;1.33;;;0.82;;
43046;SDS011;28672;49.358;8.780;2023-01-16T07:35:49;0.40;;;0.40;;
43046;SDS011;28672;49.358;8.780;2023-01-16T07:38:14;0.47;;;0.45;;
43046;SDS011;28672;49.358;8.780;2023-01-16T07:40:40;0.50;;;0.50;;
43046;SDS011;28672;49.358;8.780;2023-01-16T07:43:05;1.55;;;1.40;;
43046;SDS011;28672;49.358;8.780;2023-01-16T07:45:31;0.52;;;0.52;;
43046;SDS011;28672;49.358;8.780;2023-01-16T07:47:57;1.75;;;0.70;;
43046;SDS011;28672;49.358;8.780;2023-01-16T07:50:24;0.35;;;0.35;;
43046;SDS011;28672;49.358;8.780;2023-01-16T07:52:49;0.60;;;0.60;;
43046;SDS011;28672;49.358;8.780;2023-01-16T07:55:15;0.32;;;0.32;;
43046;SDS011;28672;49.358;8.780;2023-01-16T07:57:41;0.38;;;0.38;;
43046;SDS011;28672;49.358;8.780;2023-01-16T08:00:08;0.50;;;0.50;;
43046;SDS011;28672;49.358;8.780;2023-01-16T08:02:35;0.40;;;0.40;;
43046;SDS011;28672;49.358;8.780;2023-01-16T08:05:01;0.40;;;0.40;;
43046;SDS011;28672;49.358;8.780;2023-01-16T08:07:27;0.50;;;0.50;;
43046;SDS011;28672;49.358;8.780;2023-01-16T08:09:52;0.40;;;0.40;;
43046;SDS011;28672;49.358;8.780;2023-01-16T08:12:18;0.40;;;0.40;;
43046;SDS011;28672;49.358;8.780;2023-01-16T08:14:43;0.47;;;0.47;;
43046;SDS011;28672;49.358;8.780;2023-01-16T08:17:09;0.32;;;0.32;;
43046;SDS011;28672;49.358;8.780;2023-01-16T08:19:35;0.40;;;0.40;;
43046;SDS011;28672;49.358;8.780;2023-01-16T08:22:00;0.40;;;0.40;;
43046;SDS011;28672;49.358;8.780;2023-01-16T08:24:27;0.77;;;0.77;;
43046;SDS011;28672;49.358;8.780;2023-01-16T08:26:53;0.40;;;0.40;;
43046;SDS011;28672;49.358;8.780;2023-01-16T08:29:18;0.40;;;0.40;;
43046;SDS011;28672;49.358;8.780;2023-01-16T08:31:44;0.30;;;0.30;;
43046;SDS011;28672;49.358;8.780;2023-01-16T08:34:10;0.60;;;0.60;;
43046;SDS011;28672;49.358;8.780;2023-01-16T08:36:35;0.82;;;0.82;;
43046;SDS011;28672;49.358;8.780;2023-01-16T08:39:01;1.10;;;1.00;;
43046;SDS011;28672;49.358;8.780;2023-01-16T08:41:26;0.60;;;0.60;;
43046;SDS011;28672;49.358;8.780;2023-01-16T08:44:11;0.60;;;0.60;;
43046;SDS011;28672;49.358;8.780;2023-01-16T08:46:59;0.43;;;0.43;;
43046;SDS011;28672;49.358;8.780;2023-01-16T08:49:48;0.47;;;0.47;;
43046;SDS011;28672;49.358;8.780;2023-01-16T08:52:33;0.40;;;0.40;;
43046;SDS011;28672;49.358;8.780;2023-01-16T08:54:59;0.40;;;0.40;;
43046;SDS011;28672;49.358;8.780;2023-01-16T08:57:26;0.50;;;0.50;;
43046;SDS011;28672;49.358;8.780;2023-01-16T08:59:55;1.55;;;1.45;;
43046;SDS011;28672;49.358;8.780;2023-01-16T09:02:21;2.25;;;1.58;;
43046;SDS011;28672;49.358;8.780;2023-01-16T09:04:48;5.80;;;2.78;;
43046;SDS011;28672;49.358;8.780;2023-01-16T09:07:14;5.47;;;3.38;;
43046;SDS011;28672;49.358;8.780;2023-01-16T09:09:40;2.70;;;1.85;;
43046;SDS011;28672;49.358;8.780;2023-01-16T09:12:07;4.32;;;2.35;;
43046;SDS011;28672;49.358;8.780;2023-01-16T09:14:55;2.42;;;1.77;;
43046;SDS011;28672;49.358;8.780;2023-01-16T09:17:21;0.75;;;0.75;;
43046;SDS011;28672;49.358;8.780;2023-01-16T09:19:48;1.17;;;1.08;;
43046;SDS011;28672;49.358;8.780;2023-01-16T09:22:14;0.73;;;0.73;;
43046;SDS011;28672;49.358;8.780;2023-01-16T09:24:39;1.48;;;0.73;;
43046;SDS011;28672;49.358;8.780;2023-01-16T09:27:05;0.40;;;0.40;;
43046;SDS011;28672;49.358;8.780;2023-01-16T09:29:31;0.40;;;0.40;;
43046;SDS011;28672;49.358;8.780;2023-01-16T09:31:56;0.40;;;0.40;;
43046;SDS011;28672;49.358;8.780;2023-01-16T09:34:23;0.40;;;0.40;;
43046;SDS011;28672;49.358;8.780;2023-01-16T09:36:49;0.73;;;0.73;;
43046;SDS011;28672;49.358;8.780;2023-01-16T09:39:14;0.40;;;0.40;;
43046;SDS011;28672;49.358;8.780;2023-01-16T09:41:44;0.40;;;0.40;;
43046;SDS011;28672;49.358;8.780;2023-01-16T09:44:52;0.40;;;0.40;;
43046;SDS011;28672;49.358;8.780;2023-01-16T09:47:20;0.50;;;0.50;;
43046;SDS011;28672;49.358;8.780;2023-01-16T09:49:56;0.40;;;0.40;;
43046;SDS011;28672;49.358;8.780;2023-01-16T09:52:27;3.03;;;1.25;;
43046;SDS011;28672;49.358;8.780;2023-01-16T09:55:21;2.43;;;0.70;;
43046;SDS011;28672;49.358;8.780;2023-01-16T09:58:12;0.60;;;0.55;;
43046;SDS011;28672;49.358;8.780;2023-01-16T10:00:59;0.40;;;0.40;;
43046;SDS011;28672;49.358;8.780;2023-01-16T10:03:24;0.50;;;0.50;;
43046;SDS011;28672;49.358;8.780;2023-01-16T10:05:54;1.05;;;0.63;;
43046;SDS011;28672;49.358;8.780;2023-01-16T10:11:26;0.75;;;0.75;;
43046;SDS011;28672;49.358;8.780;2023-01-16T10:17:05;0.60;;;0.60;;
43046;SDS011;28672;49.358;8.780;2023-01-16T10:24:58;0.50;;;0.50;;
43046;SDS011;28672;49.358;8.780;2023-01-16T10:30:54;0.40;;;0.40;;
43046;SDS011;28672;49.358;8.780;2023-01-16T10:36:04;0.40;;;0.40;;
43046;SDS011;28672;49.358;8.780;2023-01-16T10:41:15;0.40;;;0.40;;
43046;SDS011;28672;49.358;8.780;2023-01-16T10:44:02;0.40;;;0.40;;
43046;SDS011;28672;49.358;8.780;2023-01-16T10:46:54;0.40;;;0.40;;
43046;SDS011;28672;49.358;8.780;2023-01-16T10:49:39;0.50;;;0.50;;
43046;SDS011;28672;49.358;8.780;2023-01-16T10:52:04;11.88;;;0.93;;
43046;SDS011;28672;49.358;8.780;2023-01-16T10:54:30;0.40;;;0.40;;
43046;SDS011;28672;49.358;8.780;2023-01-16T10:56:56;0.50;;;0.50;;
43046;SDS011;28672;49.358;8.780;2023-01-16T10:59:28;0.50;;;0.50;;
43046;SDS011;28672;49.358;8.780;2023-01-16T11:01:56;0.40;;;0.40;;
43046;SDS011;28672;49.358;8.780;2023-01-16T11:04:32;0.40;;;0.40;;
43046;SDS011;28672;49.358;8.780;2023-01-16T11:07:13;0.40;;;0.40;;
43046;SDS011;28672;49.358;8.780;2023-01-16T11:09:44;0.40;;;0.40;;
43046;SDS011;28672;49.358;8.780;2023-01-16T11:12:27;0.40;;;0.40;;
43046;SDS011;28672;49.358;8.780;2023-01-16T11:15:17;0.40;;;0.40;;
43046;SDS011;28672;49.358;8.780;2023-01-16T11:18:17;0.50;;;0.50;;
43046;SDS011;28672;49.358;8.780;2023-01-16T11:20:54;0.50;;;0.50;;
43046;SDS011;28672;49.358;8.780;2023-01-16T11:23:24;0.50;;;0.50;;
43046;SDS011;28672;49.358;8.780;2023-01-16T11:25:51;0.50;;;0.50;;
43046;SDS011;28672;49.358;8.780;2023-01-16T11:28:26;0.40;;;0.40;;
43046;SDS011;28672;49.358;8.780;2023-01-16T11:30:55;0.40;;;0.40;;
43046;SDS011;28672;49.358;8.780;2023-01-16T11:33:27;0.40;;;0.40;;
43046;SDS011;28672;49.358;8.780;2023-01-16T11:35:59;0.40;;;0.40;;
43046;SDS011;28672;49.358;8.780;2023-01-16T11:38:27;0.50;;;0.50;;
43046;SDS011;28672;49.358;8.780;2023-01-16T11:40:58;0.40;;;0.40;;
43046;SDS011;28672;49.358;8.780;2023-01-16T11:43:28;0.40;;;0.40;;
43046;SDS011;28672;49.358;8.780;2023-01-16T11:46:20;0.30;;;0.30;;
43046;SDS011;28672;49.358;8.780;2023-01-16T11:48:49;1.00;;;0.82;;
43046;SDS011;28672;49.358;8.780;2023-01-16T11:51:20;0.70;;;0.70;;
43046;SDS011;28672;49.358;8.780;2023-01-16T11:53:49;0.40;;;0.40;;
43046;SDS011;28672;49.358;8.780;2023-01-16T12:01:58;0.38;;;0.38;;
43046;SDS011;28672;49.358;8.780;2023-01-16T12:13:04;0.40;;;0.40;;
43046;SDS011;28672;49.358;8.780;2023-01-16T12:21:11;2.15;;;0.60;;
43046;SDS011;28672;49.358;8.780;2023-01-16T12:26:18;0.50;;;0.50;;
43046;SDS011;28672;49.358;8.780;2023-01-16T12:28:53;3.97;;;0.45;;
43046;SDS011;28672;49.358;8.780;2023-01-16T12:31:42;0.40;;;0.40;;
43046;SDS011;28672;49.358;8.780;2023-01-16T12:56:38;0.40;;;0.40;;
43046;SDS011;28672;49.358;8.780;2023-01-16T12:59:28;0.30;;;0.30;;
43046;SDS011;28672;49.358;8.780;2023-01-16T13:01:59;0.40;;;0.40;;
43046;SDS011;28672;49.358;8.780;2023-01-16T13:04:42;0.40;;;0.40;;
43046;SDS011;28672;49.358;8.780;2023-01-16T13:07:15;0.40;;;0.40;;
43046;SDS011;28672;49.358;8.780;2023-01-16T13:09:46;0.40;;;0.40;;
43046;SDS011;28672;49.358;8.780;2023-01-16T13:12:54;0.30;;;0.30;;
43046;SDS011;28672;49.358;8.780;2023-01-16T13:15:42;0.50;;;0.50;;
43046;SDS011;28672;49.358;8.780;2023-01-16T13:20:45;0.40;;;0.40;;
43046;SDS011;28672;49.358;8.780;2023-01-16T13:23:15;0.40;;;0.40;;
43046;SDS011;28672;49.358;8.780;2023-01-16T13:25:44;0.40;;;0.40;;
43046;SDS011;28672;49.358;8.780;2023-01-16T13:28:27;0.32;;;0.32;;
43046;SDS011;28672;49.358;8.780;2023-01-16T13:31:02;0.70;;;0.35;;
43046;SDS011;28672;49.358;8.780;2023-01-16T13:33:33;0.40;;;0.40;;
43046;SDS011;28672;49.358;8.780;2023-01-16T13:41:42;0.40;;;0.40;;
43046;SDS011;28672;49.358;8.780;2023-01-16T13:47:08;0.30;;;0.30;;
43046;SDS011;28672;49.358;8.780;2023-01-16T13:49:37;0.63;;;0.63;;
43046;SDS011;28672;49.358;8.780;2023-01-16T13:52:04;1.05;;;0.65;;
43046;SDS011;28672;49.358;8.780;2023-01-16T13:54:43;0.38;;;0.38;;
43046;SDS011;28672;49.358;8.780;2023-01-16T13:57:15;0.40;;;0.40;;
43046;SDS011;28672;49.358;8.780;2023-01-16T13:59:47;0.47;;;0.47;;
43046;SDS011;28672;49.358;8.780;2023-01-16T14:02:22;0.40;;;0.40;;
43046;SDS011;28672;49.358;8.780;2023-01-16T14:10:44;0.50;;;0.50;;
43046;SDS011;28672;49.358;8.780;2023-01-16T14:15:52;0.57;;;0.57;;
43046;SDS011;28672;49.358;8.780;2023-01-16T14:18:43;2.95;;;0.50;;
43046;SDS011;28672;49.358;8.780;2023-01-16T14:21:29;0.40;;;0.40;;
43046;SDS011;28672;49.358;8.780;2023-01-16T14:24:13;0.40;;;0.40;;
43046;SDS011;28672;49.358;8.780;2023-01-16T14:26:49;0.43;;;0.43;;
43046;SDS011;28672;49.358;8.780;2023-01-16T14:29:22;1.08;;;1.00;;
43046;SDS011;28672;49.358;8.780;2023-01-16T14:35:10;0.40;;;0.40;;
43046;SDS011;28672;49.358;8.780;2023-01-16T14:37:28;0.50;;;0.50;;
43046;SDS011;28672;49.358;8.780;2023-01-16T14:40:11;12.48;;;1.67;;
43046;SDS011;28672;49.358;8.780;2023-01-16T14:42:51;0.45;;;0.45;;
43046;SDS011;28672;49.358;8.780;2023-01-16T14:45:38;0.30;;;0.30;;
43046;SDS011;28672;49.358;8.780;2023-01-16T14:56:56;0.57;;;0.57;;
43046;SDS011;28672;49.358;8.780;2023-01-16T14:59:36;0.57;;;0.57;;
43046;SDS011;28672;49.358;8.780;2023-01-16T15:04:57;0.30;;;0.30;;
43046;SDS011;28672;49.358;8.780;2023-01-16T15:08:16;0.40;;;0.40;;
43046;SDS011;28672;49.358;8.780;2023-01-16T15:10:38;0.45;;;0.45;;
43046;SDS011;28672;49.358;8.780;2023-01-16T15:13:14;0.30;;;0.30;;
43046;SDS011;28672;49.358;8.780;2023-01-16T15:15:42;0.45;;;0.45;;
43046;SDS011;28672;49.358;8.780;2023-01-16T15:18:12;0.38;;;0.38;;
43046;SDS011;28672;49.358;8.780;2023-01-16T15:20:57;0.35;;;0.35;;
43046;SDS011;28672;49.358;8.780;2023-01-16T15:23:42;0.57;;;0.57;;
43046;SDS011;28672;49.358;8.780;2023-01-16T15:31:15;0.30;;;0.30;;
43046;SDS011;28672;49.358;8.780;2023-01-16T15:33:44;0.50;;;0.50;;
43046;SDS011;28672;49.358;8.780;2023-01-16T15:44:44;0.35;;;0.35;;
43046;SDS011;28672;49.358;8.780;2023-01-16T15:53:07;1.25;;;0.70;;
43046;SDS011;28672;49.358;8.780;2023-01-16T15:55:41;0.30;;;0.30;;
43046;SDS011;28672;49.358;8.780;2023-01-16T15:58:11;0.40;;;0.40;;
43046;SDS011;28672;49.358;8.780;2023-01-16T16:00:42;0.40;;;0.40;;
43046;SDS011;28672;49.358;8.780;2023-01-16T16:05:42;0.40;;;0.40;;
43046;SDS011;28672;49.358;8.780;2023-01-16T16:08:21;0.30;;;0.30;;
43046;SDS011;28672;49.358;8.780;2023-01-16T16:10:53;0.30;;;0.30;;
43046;SDS011;28672;49.358;8.780;2023-01-16T16:13:39;0.30;;;0.30;;
43046;SDS011;28672;49.358;8.780;2023-01-16T16:16:19;0.40;;;0.40;;
43046;SDS011;28672;49.358;8.780;2023-01-16T16:19:05;0.30;;;0.30;;
43046;SDS011;28672;49.358;8.780;2023-01-16T16:21:34;0.60;;;0.60;;
43046;SDS011;28672;49.358;8.780;2023-01-16T16:24:27;9.32;;;0.70;;
43046;SDS011;28672;49.358;8.780;2023-01-16T16:26:52;0.40;;;0.40;;
43046;SDS011;28672;49.358;8.780;2023-01-16T16:29:19;0.40;;;0.40;;
43046;SDS011;28672;49.358;8.780;2023-01-16T16:31:46;0.77;;;0.77;;
43046;SDS011;28672;49.358;8.780;2023-01-16T16:36:46;0.40;;;0.40;;
43046;SDS011;28672;49.358;8.780;2023-01-16T16:39:35;0.30;;;0.30;;
43046;SDS011;28672;49.358;8.780;2023-01-16T16:47:34;1.67;;;0.50;;
43046;SDS011;28672;49.358;8.780;2023-01-16T16:50:01;0.40;;;0.40;;
43046;SDS011;28672;49.358;8.780;2023-01-16T16:52:47;0.40;;;0.40;;
43046;SDS011;28672;49.358;8.780;2023-01-16T16:55:30;0.40;;;0.40;;
43046;SDS011;28672;49.358;8.780;2023-01-16T16:58:01;0.50;;;0.50;;
43046;SDS011;28672;49.358;8.780;2023-01-16T17:00:29;0.50;;;0.50;;
43046;SDS011;28672;49.358;8.780;2023-01-16T17:03:04;0.50;;;0.50;;
43046;SDS011;28672;49.358;8.780;2023-01-16T17:05:32;0.40;;;0.40;;
43046;SDS011;28672;49.358;8.780;2023-01-16T17:07:58;0.80;;;0.80;;
43046;SDS011;28672;49.358;8.780;2023-01-16T17:10:24;0.30;;;0.30;;
43046;SDS011;28672;49.358;8.780;2023-01-16T17:12:49;0.40;;;0.40;;
43046;SDS011;28672;49.358;8.780;2023-01-16T17:15:15;0.40;;;0.40;;
43046;SDS011;28672;49.358;8.780;2023-01-16T17:17:41;0.40;;;0.40;;
43046;SDS011;28672;49.358;8.780;2023-01-16T17:20:19;0.40;;;0.40;;
43046;SDS011;28672;49.358;8.780;2023-01-16T17:22:46;0.38;;;0.38;;
43046;SDS011;28672;49.358;8.780;2023-01-16T17:25:13;0.40;;;0.40;;
43046;SDS011;28672;49.358;8.780;2023-01-16T17:27:53;0.40;;;0.40;;
43046;SDS011;28672;49.358;8.780;2023-01-16T17:30:20;0.30;;;0.30;;
43046;SDS011;28672;49.358;8.780;2023-01-16T17:32:51;0.30;;;0.30;;
43046;SDS011;28672;49.358;8.780;2023-01-16T17:35:20;0.40;;;0.40;;
43046;SDS011;28672;49.358;8.780;2023-01-16T17:37:45;0.57;;;0.57;;
43046;SDS011;28672;49.358;8.780;2023-01-16T17:40:11;0.40;;;0.40;;
43046;SDS011;28672;49.358;8.780;2023-01-16T17:42:36;0.40;;;0.40;;
43046;SDS011;28672;49.358;8.780;2023-01-16T17:45:31;0.40;;;0.40;;
43046;SDS011;28672;49.358;8.780;2023-01-16T17:48:20;0.30;;;0.30;;
43046;SDS011;28672;49.358;8.780;2023-01-16T17:50:50;0.40;;;0.40;;
43046;SDS011;28672;49.358;8.780;2023-01-16T17:53:17;0.80;;;0.80;;
43046;SDS011;28672;49.358;8.780;2023-01-16T17:55:45;0.40;;;0.40;;
43046;SDS011;28672;49.358;8.780;2023-01-16T17:58:26;0.40;;;0.40;;
43046;SDS011;28672;49.358;8.780;2023-01-16T18:00:57;0.40;;;0.40;;
43046;SDS011;28672;49.358;8.780;2023-01-16T18:03:25;0.30;;;0.30;;